Time;durP1;ratioP1;P1;durP2;ratioP2;P2;SDS_P1;SDS_P2;PMS_P1;PMS_P2;Temp;Humidity;BMP_temperature;BMP_pressure;BME280_temperature;BME280_humidity;BME280_pressure;Samples;Min_cycle;Max_cycle;Signal;HPM_P1;HPM_P2
2021/08/20 00:00:43;;;;;;;9.80;2.97;;;;;;;;;;5077712;28;20230;-82
2021/08/20 00:03:10;;;;;;;6.13;2.50;;;;;;;;;;5077249;28;20222;-84
2021/08/20 00:05:39;;;;;;;8.40;2.63;;;;;;;;;;5082675;28;20230;-83
2021/08/20 00:08:06;;;;;;;4.93;2.70;;;;;;;;;;5083856;28;20214;-83
2021/08/20 00:10:33;;;;;;;5.93;2.77;;;;;;;;;;5082853;28;20233;-84
2021/08/20 00:13:01;;;;;;;7.80;2.83;;;;;;;;;;5073449;28;20199;-83
2021/08/20 00:15:30;;;;;;;4.97;3.10;;;;;;;;;;5069489;28;20269;-83
2021/08/20 00:17:57;;;;;;;3.67;2.53;;;;;;;;;;5074011;28;20230;-83
2021/08/20 00:20:24;;;;;;;8.13;2.53;;;;;;;;;;5072652;28;20284;-84
2021/08/20 00:22:53;;;;;;;10.27;2.80;;;;;;;;;;5069448;28;20238;-84
2021/08/20 00:25:20;;;;;;;7.20;2.97;;;;;;;;;;5076243;28;20233;-84
2021/08/20 00:27:48;;;;;;;6.93;2.90;;;;;;;;;;5075495;28;20253;-84
2021/08/20 00:30:15;;;;;;;4.27;2.50;;;;;;;;;;5071098;28;20203;-83
2021/08/20 00:32:42;;;;;;;5.40;2.30;;;;;;;;;;5075221;28;20321;-83
2021/08/20 00:35:10;;;;;;;4.00;2.30;;;;;;;;;;5077797;28;20206;-83
2021/08/20 00:37:37;;;;;;;7.87;2.37;;;;;;;;;;5073816;28;20227;-84
2021/08/20 00:40:07;;;;;;;6.70;2.40;;;;;;;;;;5079700;28;20232;-84
2021/08/20 00:42:34;;;;;;;10.93;2.40;;;;;;;;;;5075349;28;20245;-84
2021/08/20 00:45:04;;;;;;;3.57;2.50;;;;;;;;;;5078340;28;20282;-84
2021/08/20 00:47:31;;;;;;;4.03;2.50;;;;;;;;;;5075204;28;20281;-84
2021/08/20 00:49:58;;;;;;;11.17;2.20;;;;;;;;;;5073099;28;20206;-84
2021/08/20 00:52:26;;;;;;;8.70;2.37;;;;;;;;;;5072710;28;20253;-84
2021/08/20 00:54:53;;;;;;;4.43;2.57;;;;;;;;;;5076737;28;20210;-84
2021/08/20 00:57:23;;;;;;;6.73;2.90;;;;;;;;;;5073951;28;20269;-84
2021/08/20 00:59:50;;;;;;;4.67;2.43;;;;;;;;;;5075685;28;20222;-84
2021/08/20 01:02:17;;;;;;;5.10;2.40;;;;;;;;;;5073487;28;20203;-84
2021/08/20 01:04:45;;;;;;;6.20;2.73;;;;;;;;;;5077475;28;20288;-84
2021/08/20 01:07:12;;;;;;;4.20;2.57;;;;;;;;;;5076059;28;20288;-84
2021/08/20 01:09:39;;;;;;;5.17;2.60;;;;;;;;;;5075073;28;20223;-84
2021/08/20 01:12:07;;;;;;;5.13;2.53;;;;;;;;;;5073169;28;20206;-84
2021/08/20 01:14:36;;;;;;;4.07;2.50;;;;;;;;;;5078519;28;20237;-84
2021/08/20 01:17:04;;;;;;;5.57;2.53;;;;;;;;;;5074730;28;20294;-84
2021/08/20 01:19:32;;;;;;;6.37;3.50;;;;;;;;;;5072932;28;20345;-84
2021/08/20 01:21:59;;;;;;;6.00;2.97;;;;;;;;;;5077491;28;20225;-84
2021/08/20 01:24:27;;;;;;;4.63;2.70;;;;;;;;;;5070108;28;20230;-84
2021/08/20 01:26:56;;;;;;;5.93;3.10;;;;;;;;;;5077715;28;20229;-84
2021/08/20 01:29:24;;;;;;;6.50;2.83;;;;;;;;;;5071229;28;20230;-84
2021/08/20 01:31:51;;;;;;;5.20;2.53;;;;;;;;;;5071979;28;20208;-83
2021/08/20 01:34:18;;;;;;;4.57;2.63;;;;;;;;;;5073390;28;20333;-84
2021/08/20 01:36:45;;;;;;;3.33;2.30;;;;;;;;;;5069980;28;20215;-84
2021/08/20 01:39:12;;;;;;;4.10;2.40;;;;;;;;;;5071950;28;20222;-84
2021/08/20 01:41:40;;;;;;;5.10;2.37;;;;;;;;;;5071523;28;20262;-84
2021/08/20 01:44:08;;;;;;;4.63;2.77;;;;;;;;;;5073972;28;20237;-84
2021/08/20 01:46:35;;;;;;;8.30;3.07;;;;;;;;;;5082913;28;20286;-85
2021/08/20 01:49:03;;;;;;;8.43;2.90;;;;;;;;;;5086926;28;20194;-83
2021/08/20 01:51:31;;;;;;;3.73;2.70;;;;;;;;;;5087779;28;20197;-84
2021/08/20 01:53:59;;;;;;;8.17;2.93;;;;;;;;;;5082080;28;20202;-84
2021/08/20 01:56:27;;;;;;;4.83;2.80;;;;;;;;;;5075081;28;20686;-84
2021/08/20 01:58:54;;;;;;;7.43;3.00;;;;;;;;;;5071863;28;20289;-84
2021/08/20 02:01:23;;;;;;;6.50;3.07;;;;;;;;;;5074816;28;20230;-84
2021/08/20 02:03:50;;;;;;;7.93;3.20;;;;;;;;;;5073156;28;20207;-84
2021/08/20 02:06:17;;;;;;;9.03;3.13;;;;;;;;;;5073163;28;20246;-84
2021/08/20 02:08:45;;;;;;;5.83;2.77;;;;;;;;;;5074596;28;20627;-84
2021/08/20 02:11:12;;;;;;;7.63;2.97;;;;;;;;;;5073366;28;20234;-84
2021/08/20 02:13:39;;;;;;;4.93;2.67;;;;;;;;;;5074619;28;20233;-84
2021/08/20 02:16:07;;;;;;;8.77;2.83;;;;;;;;;;5074679;28;20208;-84
2021/08/20 02:18:35;;;;;;;2.93;2.33;;;;;;;;;;5071489;28;20261;-84
2021/08/20 02:21:03;;;;;;;5.43;2.87;;;;;;;;;;5073328;28;20214;-83
2021/08/20 02:23:32;;;;;;;4.90;2.63;;;;;;;;;;5072429;28;20191;-84
2021/08/20 02:25:59;;;;;;;4.93;2.70;;;;;;;;;;5072715;28;20238;-84
2021/08/20 02:28:26;;;;;;;6.87;2.87;;;;;;;;;;5074993;28;20615;-84
2021/08/20 02:30:54;;;;;;;3.70;2.50;;;;;;;;;;5069298;28;20241;-84
2021/08/20 02:33:21;;;;;;;7.97;2.50;;;;;;;;;;5074478;28;20229;-84
2021/08/20 02:35:49;;;;;;;3.63;2.50;;;;;;;;;;5070920;28;20722;-85
2021/08/20 02:38:17;;;;;;;5.53;2.93;;;;;;;;;;5066957;28;20249;-84
2021/08/20 02:40:44;;;;;;;7.23;2.93;;;;;;;;;;5059734;28;20667;-84
2021/08/20 02:43:22;;;;;;;8.07;3.30;;;;;;;;;;5058157;28;20291;-83
2021/08/20 02:45:56;;;;;;;3.80;2.77;;;;;;;;;;5060364;28;20308;-84
2021/08/20 02:48:23;;;;;;;6.77;3.30;;;;;;;;;;5057785;28;20226;-84
2021/08/20 02:50:52;;;;;;;6.70;2.90;;;;;;;;;;5064967;28;20674;-84
2021/08/20 02:53:49;;;;;;;10.07;3.00;;;;;;;;;;5060168;28;20688;-84
2021/08/20 02:56:16;;;;;;;7.77;2.93;;;;;;;;;;5048457;28;20226;-83
2021/08/20 02:58:43;;;;;;;4.73;3.13;;;;;;;;;;5065082;28;20213;-83
2021/08/20 03:01:10;;;;;;;7.27;3.37;;;;;;;;;;5061966;28;20589;-83
2021/08/20 03:03:37;;;;;;;6.23;2.83;;;;;;;;;;5060963;28;20293;-82
2021/08/20 03:06:06;;;;;;;4.83;2.93;;;;;;;;;;5060241;28;20220;-83
2021/08/20 03:08:33;;;;;;;6.23;2.67;;;;;;;;;;5060787;28;20214;-83
2021/08/20 03:11:00;;;;;;;9.93;3.00;;;;;;;;;;5063349;28;20722;-83
2021/08/20 03:13:27;;;;;;;6.80;2.87;;;;;;;;;;5062683;28;20289;-82
2021/08/20 03:15:55;;;;;;;5.53;2.97;;;;;;;;;;5061846;28;20194;-83
2021/08/20 03:18:22;;;;;;;7.40;3.10;;;;;;;;;;5065223;28;20313;-84
2021/08/20 03:20:49;;;;;;;4.27;2.73;;;;;;;;;;5064818;28;20289;-84
2021/08/20 03:23:17;;;;;;;8.27;3.40;;;;;;;;;;5070725;28;20321;-84
2021/08/20 03:25:45;;;;;;;10.17;3.40;;;;;;;;;;5065878;28;20234;-84
2021/08/20 03:28:12;;;;;;;8.07;3.37;;;;;;;;;;5063825;28;20698;-84
2021/08/20 03:30:39;;;;;;;7.77;3.50;;;;;;;;;;5069979;28;20217;-83
2021/08/20 03:33:07;;;;;;;12.07;3.83;;;;;;;;;;5076115;28;20269;-83
2021/08/20 03:35:34;;;;;;;7.67;2.90;;;;;;;;;;5079573;28;20226;-83
2021/08/20 03:38:01;;;;;;;5.97;3.10;;;;;;;;;;5068606;28;20226;-83
2021/08/20 03:40:30;;;;;;;5.43;3.20;;;;;;;;;;5059944;28;20288;-83
2021/08/20 03:42:57;;;;;;;4.93;3.30;;;;;;;;;;5067165;28;20299;-83
2021/08/20 03:45:24;;;;;;;9.10;3.73;;;;;;;;;;5063809;28;20294;-83
2021/08/20 03:47:51;;;;;;;7.17;3.40;;;;;;;;;;5065459;28;20257;-83
2021/08/20 03:50:19;;;;;;;5.43;3.43;;;;;;;;;;5060677;28;20206;-83
2021/08/20 03:52:46;;;;;;;7.10;3.40;;;;;;;;;;5067111;28;20237;-83
2021/08/20 03:55:13;;;;;;;10.30;4.03;;;;;;;;;;5064336;28;20204;-83
2021/08/20 03:57:42;;;;;;;5.73;3.30;;;;;;;;;;5066230;28;20219;-83
2021/08/20 04:00:09;;;;;;;6.00;3.20;;;;;;;;;;5062944;28;20313;-83
2021/08/20 04:02:36;;;;;;;6.43;2.87;;;;;;;;;;5064255;28;20704;-83
2021/08/20 04:05:04;;;;;;;7.67;3.77;;;;;;;;;;5063641;28;20320;-83
2021/08/20 04:07:31;;;;;;;5.63;3.37;;;;;;;;;;5062176;28;20240;-83
2021/08/20 04:09:58;;;;;;;5.20;3.27;;;;;;;;;;5064560;28;20294;-83
2021/08/20 04:12:27;;;;;;;5.90;3.03;;;;;;;;;;5065309;28;20241;-83
2021/08/20 04:14:56;;;;;;;5.30;3.23;;;;;;;;;;5064642;28;20281;-82
2021/08/20 04:17:23;;;;;;;7.27;3.63;;;;;;;;;;5062194;28;20300;-84
2021/08/20 04:19:50;;;;;;;9.70;3.87;;;;;;;;;;5061533;28;20213;-83
2021/08/20 04:22:17;;;;;;;6.53;3.90;;;;;;;;;;5066860;28;20206;-85
2021/08/20 04:24:44;;;;;;;8.90;4.23;;;;;;;;;;5063452;28;21240;-83
2021/08/20 04:27:11;;;;;;;6.37;3.60;;;;;;;;;;5059317;28;20235;-84
2021/08/20 04:29:39;;;;;;;7.40;4.40;;;;;;;;;;5064952;28;20665;-83
2021/08/20 04:32:07;;;;;;;12.07;4.80;;;;;;;;;;5063874;28;20234;-84
2021/08/20 04:34:35;;;;;;;11.57;4.90;;;;;;;;;;5065900;28;20808;-83
2021/08/20 04:37:02;;;;;;;11.30;4.67;;;;;;;;;;5065419;28;20256;-83
2021/08/20 04:39:29;;;;;;;13.70;5.97;;;;;;;;;;5062401;28;20256;-82
2021/08/20 04:41:56;;;;;;;16.57;5.53;;;;;;;;;;5057672;28;20203;-83
2021/08/20 04:44:23;;;;;;;14.87;5.50;;;;;;;;;;5062805;28;20294;-82
2021/08/20 04:46:50;;;;;;;11.77;5.60;;;;;;;;;;5060514;28;20230;-84
2021/08/20 04:49:19;;;;;;;9.47;5.37;;;;;;;;;;5059976;28;20241;-83
2021/08/20 04:51:46;;;;;;;11.17;5.13;;;;;;;;;;5062612;28;20214;-83
2021/08/20 04:54:13;;;;;;;7.60;5.00;;;;;;;;;;5064845;28;20289;-84
2021/08/20 04:56:40;;;;;;;11.53;5.60;;;;;;;;;;5062916;28;20246;-84
2021/08/20 04:59:08;;;;;;;6.80;4.73;;;;;;;;;;5062562;28;20202;-84
2021/08/20 05:01:35;;;;;;;15.03;6.80;;;;;;;;;;5065807;28;20211;-84
2021/08/20 05:04:03;;;;;;;11.77;7.73;;;;;;;;;;5063720;28;20234;-83
2021/08/20 05:06:32;;;;;;;13.53;7.20;;;;;;;;;;5066173;28;20231;-84
2021/08/20 05:08:59;;;;;;;18.23;11.03;;;;;;;;;;5063645;28;20226;-82
2021/08/20 05:11:27;;;;;;;21.70;10.80;;;;;;;;;;5063903;28;20669;-82
2021/08/20 05:13:55;;;;;;;18.10;11.53;;;;;;;;;;5069039;28;20210;-81
2021/08/20 05:16:22;;;;;;;18.17;10.73;;;;;;;;;;5081877;28;20312;-81
2021/08/20 05:18:49;;;;;;;18.53;11.80;;;;;;;;;;5081127;28;20717;-82
2021/08/20 05:21:16;;;;;;;21.40;10.37;;;;;;;;;;5074892;28;20207;-83
2021/08/20 05:23:45;;;;;;;19.33;11.70;;;;;;;;;;5063208;28;20294;-83
2021/08/20 05:26:12;;;;;;;17.90;10.63;;;;;;;;;;5064492;28;20226;-83
2021/08/20 05:28:39;;;;;;;26.10;14.33;;;;;;;;;;5063895;28;20207;-83
2021/08/20 05:31:06;;;;;;;19.47;12.00;;;;;;;;;;5061874;28;20377;-83
2021/08/20 05:33:34;;;;;;;26.43;14.33;;;;;;;;;;5063050;28;20293;-82
2021/08/20 05:36:01;;;;;;;21.03;13.37;;;;;;;;;;5062122;28;20205;-82
2021/08/20 05:38:28;;;;;;;25.13;14.40;;;;;;;;;;5064765;28;20214;-82
2021/08/20 05:40:57;;;;;;;24.63;13.73;;;;;;;;;;5064176;28;20286;-83
2021/08/20 05:43:24;;;;;;;19.17;11.60;;;;;;;;;;5064153;28;20207;-82
2021/08/20 05:45:52;;;;;;;25.77;13.97;;;;;;;;;;5059458;28;20293;-83
2021/08/20 05:48:19;;;;;;;28.80;15.43;;;;;;;;;;5062023;28;20240;-82
2021/08/20 05:50:46;;;;;;;21.77;13.60;;;;;;;;;;5060128;28;20306;-82
2021/08/20 05:53:13;;;;;;;23.63;14.10;;;;;;;;;;5057440;28;20586;-83
2021/08/20 05:55:40;;;;;;;19.23;11.07;;;;;;;;;;5068647;28;20201;-83
2021/08/20 05:58:09;;;;;;;19.20;13.10;;;;;;;;;;5060775;28;20222;-82
2021/08/20 06:00:36;;;;;;;27.83;14.97;;;;;;;;;;5067004;28;20230;-83
2021/08/20 06:03:03;;;;;;;17.80;10.97;;;;;;;;;;5064090;28;20239;-83
2021/08/20 06:05:30;;;;;;;21.87;13.50;;;;;;;;;;5061059;28;20709;-83
2021/08/20 06:07:58;;;;;;;22.00;12.90;;;;;;;;;;5064556;28;20609;-83
2021/08/20 06:10:25;;;;;;;21.43;10.83;;;;;;;;;;5065797;28;20230;-83
2021/08/20 06:12:52;;;;;;;21.33;12.37;;;;;;;;;;5062441;28;20206;-84
2021/08/20 06:15:21;;;;;;;16.37;10.47;;;;;;;;;;5063016;28;20297;-84
2021/08/20 06:17:48;;;;;;;16.87;9.60;;;;;;;;;;5066109;28;20712;-82
2021/08/20 06:20:15;;;;;;;20.63;11.97;;;;;;;;;;5062558;28;20257;-83
2021/08/20 06:22:42;;;;;;;18.30;10.70;;;;;;;;;;5059262;28;20290;-83
2021/08/20 06:25:10;;;;;;;20.93;12.33;;;;;;;;;;5059555;28;20286;-83
2021/08/20 06:27:37;;;;;;;22.27;12.27;;;;;;;;;;5060234;28;20228;-82
2021/08/20 06:30:05;;;;;;;26.70;12.57;;;;;;;;;;5064347;28;20214;-83
2021/08/20 06:32:33;;;;;;;18.07;9.93;;;;;;;;;;5061262;28;20249;-82
2021/08/20 06:35:00;;;;;;;21.27;12.00;;;;;;;;;;5061780;28;20206;-83
2021/08/20 06:37:28;;;;;;;18.53;10.70;;;;;;;;;;5065097;28;20222;-82
2021/08/20 06:39:55;;;;;;;23.83;13.90;;;;;;;;;;5061275;28;20270;-83
2021/08/20 06:42:22;;;;;;;23.43;10.70;;;;;;;;;;5062888;28;20252;-82
2021/08/20 06:44:49;;;;;;;27.20;12.87;;;;;;;;;;5063981;28;20226;-83
2021/08/20 06:47:17;;;;;;;30.00;14.57;;;;;;;;;;5062945;28;20316;-83
2021/08/20 06:49:46;;;;;;;26.30;14.77;;;;;;;;;;5066511;28;20750;-82
2021/08/20 06:52:13;;;;;;;27.93;15.77;;;;;;;;;;5067718;28;20289;-83
2021/08/20 06:54:40;;;;;;;23.27;13.93;;;;;;;;;;5068894;28;20209;-84
2021/08/20 06:57:07;;;;;;;24.23;14.60;;;;;;;;;;5078338;28;20285;-83
2021/08/20 06:59:36;;;;;;;28.90;13.60;;;;;;;;;;5087208;28;20231;-83
2021/08/20 07:02:03;;;;;;;26.17;15.47;;;;;;;;;;5085539;28;20206;-84
2021/08/20 07:04:30;;;;;;;34.50;17.87;;;;;;;;;;5076480;28;20239;-84
2021/08/20 07:06:59;;;;;;;29.30;15.67;;;;;;;;;;5087720;28;20239;-84
2021/08/20 07:09:26;;;;;;;33.50;17.53;;;;;;;;;;5082810;28;20237;-84
2021/08/20 07:11:53;;;;;;;27.60;16.20;;;;;;;;;;5073859;28;20203;-84
2021/08/20 07:14:20;;;;;;;26.57;16.40;;;;;;;;;;5065209;28;20297;-85
2021/08/20 07:16:47;;;;;;;23.23;13.50;;;;;;;;;;5068693;28;20708;-82
2021/08/20 07:19:14;;;;;;;23.60;15.33;;;;;;;;;;5067656;28;20235;-83
2021/08/20 07:21:42;;;;;;;21.33;13.90;;;;;;;;;;5067497;28;20202;-83
2021/08/20 07:24:10;;;;;;;26.83;15.93;;;;;;;;;;5068601;28;20242;-83
2021/08/20 07:26:38;;;;;;;20.20;12.63;;;;;;;;;;5066474;28;20246;-83
2021/08/20 07:29:05;;;;;;;22.53;14.00;;;;;;;;;;5066060;28;20207;-83
2021/08/20 07:31:35;;;;;;;18.27;11.67;;;;;;;;;;5066156;28;20256;-83
2021/08/20 07:34:03;;;;;;;19.93;11.37;;;;;;;;;;5063251;28;20209;-83
2021/08/20 07:36:30;;;;;;;19.23;13.03;;;;;;;;;;5064714;28;20309;-83
2021/08/20 07:38:57;;;;;;;17.97;11.73;;;;;;;;;;5067501;28;20294;-84
2021/08/20 07:41:26;;;;;;;19.03;11.40;;;;;;;;;;5066694;28;20228;-84
2021/08/20 07:43:53;;;;;;;18.53;11.13;;;;;;;;;;5066801;28;20272;-84
2021/08/20 07:46:20;;;;;;;16.73;10.90;;;;;;;;;;5067729;28;20243;-84
2021/08/20 07:48:47;;;;;;;15.40;10.67;;;;;;;;;;5064005;28;20941;-82
2021/08/20 07:51:15;;;;;;;18.60;10.73;;;;;;;;;;5073746;28;20231;-83
2021/08/20 07:53:42;;;;;;;16.00;9.83;;;;;;;;;;5069822;28;20210;-83
2021/08/20 07:56:09;;;;;;;16.83;9.93;;;;;;;;;;5067987;28;20222;-83
2021/08/20 07:58:38;;;;;;;12.40;8.23;;;;;;;;;;5067666;28;20221;-84
2021/08/20 08:01:05;;;;;;;13.43;8.03;;;;;;;;;;5066428;28;20243;-83
2021/08/20 08:03:32;;;;;;;13.27;8.30;;;;;;;;;;5066153;28;20272;-83
2021/08/20 08:06:01;;;;;;;12.90;8.23;;;;;;;;;;5069256;28;20644;-82
2021/08/20 08:08:28;;;;;;;18.23;9.30;;;;;;;;;;5064068;28;20262;-82
2021/08/20 08:10:56;;;;;;;12.03;8.20;;;;;;;;;;5070618;28;20576;-82
2021/08/20 08:13:23;;;;;;;13.40;8.87;;;;;;;;;;5065962;28;20757;-82
2021/08/20 08:15:52;;;;;;;15.50;8.20;;;;;;;;;;5067738;28;20738;-83
2021/08/20 08:18:19;;;;;;;13.47;8.03;;;;;;;;;;5067071;28;20237;-82
2021/08/20 08:20:46;;;;;;;12.47;7.97;;;;;;;;;;5068516;28;20259;-82
2021/08/20 08:23:13;;;;;;;12.90;7.77;;;;;;;;;;5061605;28;20214;-82
2021/08/20 08:25:40;;;;;;;12.00;7.60;;;;;;;;;;5069302;28;20554;-82
2021/08/20 08:28:07;;;;;;;13.70;8.37;;;;;;;;;;5070251;28;20603;-81
2021/08/20 08:30:36;;;;;;;15.30;8.10;;;;;;;;;;5059587;28;20200;-81
2021/08/20 08:33:05;;;;;;;12.47;7.77;;;;;;;;;;5064765;28;20203;-81
2021/08/20 08:35:32;;;;;;;14.80;8.00;;;;;;;;;;5066712;28;20283;-82
2021/08/20 08:38:03;;;;;;;13.60;7.57;;;;;;;;;;5066701;28;20230;-81
2021/08/20 08:40:31;;;;;;;12.23;7.23;;;;;;;;;;5068972;28;20260;-81
2021/08/20 08:42:58;;;;;;;13.17;8.27;;;;;;;;;;5082645;28;20231;-81
2021/08/20 08:45:26;;;;;;;10.93;7.43;;;;;;;;;;5079815;28;20388;-81
2021/08/20 08:47:54;;;;;;;14.13;8.00;;;;;;;;;;5071943;28;20675;-82
2021/08/20 08:50:23;;;;;;;10.03;6.80;;;;;;;;;;5060541;28;20283;-82
2021/08/20 08:52:51;;;;;;;12.43;6.63;;;;;;;;;;5064911;28;20279;-82
2021/08/20 08:55:18;;;;;;;14.90;7.27;;;;;;;;;;5062873;28;20206;-83
2021/08/20 08:57:45;;;;;;;11.63;7.30;;;;;;;;;;5063016;28;20261;-82
2021/08/20 09:00:14;;;;;;;9.57;6.50;;;;;;;;;;5061452;28;20272;-82
2021/08/20 09:02:41;;;;;;;8.73;5.83;;;;;;;;;;5064013;28;20252;-82
2021/08/20 09:05:10;;;;;;;10.53;5.93;;;;;;;;;;5067089;28;20212;-82
2021/08/20 09:07:39;;;;;;;9.37;6.40;;;;;;;;;;5062033;28;20242;-82
2021/08/20 09:10:09;;;;;;;8.83;6.53;;;;;;;;;;5064863;28;20252;-82
2021/08/20 09:12:37;;;;;;;9.33;6.27;;;;;;;;;;5063519;28;20297;-82
2021/08/20 09:15:04;;;;;;;8.73;5.40;;;;;;;;;;5060760;28;20203;-82
2021/08/20 09:17:34;;;;;;;11.23;6.33;;;;;;;;;;5065224;28;20219;-83
2021/08/20 09:20:17;;;;;;;10.70;7.43;;;;;;;;;;5065795;28;20263;-82
2021/08/20 09:22:46;;;;;;;9.37;6.53;;;;;;;;;;5059911;28;20203;-82
2021/08/20 09:25:33;;;;;;;9.73;6.27;;;;;;;;;;5068680;28;20225;-82
2021/08/20 09:28:10;;;;;;;11.03;6.93;;;;;;;;;;5059800;28;20261;-82
2021/08/20 09:30:37;;;;;;;14.90;6.37;;;;;;;;;;5064646;28;20276;-82
2021/08/20 09:33:10;;;;;;;11.27;6.60;;;;;;;;;;5064717;28;20207;-82
2021/08/20 09:35:38;;;;;;;11.60;6.13;;;;;;;;;;5063515;28;20202;-83
2021/08/20 09:38:10;;;;;;;11.57;6.90;;;;;;;;;;5063936;28;20279;-82
2021/08/20 09:40:38;;;;;;;10.30;6.67;;;;;;;;;;5061076;28;20213;-82
2021/08/20 09:43:20;;;;;;;10.30;5.87;;;;;;;;;;5062891;28;20754;-82
2021/08/20 09:46:05;;;;;;;8.50;5.77;;;;;;;;;;5064821;28;20627;-82
2021/08/20 09:48:52;;;;;;;8.00;5.40;;;;;;;;;;5057044;28;20317;-81
2021/08/20 09:51:39;;;;;;;9.53;5.83;;;;;;;;;;5063263;28;20664;-82
2021/08/20 09:54:09;;;;;;;11.17;6.37;;;;;;;;;;5063216;28;20627;-83
2021/08/20 09:56:37;;;;;;;10.13;6.13;;;;;;;;;;5061334;28;20313;-83
2021/08/20 09:59:04;;;;;;;6.80;4.97;;;;;;;;;;5061438;28;20210;-82
2021/08/20 10:01:32;;;;;;;7.33;5.60;;;;;;;;;;5061466;28;20207;-82
2021/08/20 10:04:00;;;;;;;6.40;4.83;;;;;;;;;;5061222;28;20911;-82
2021/08/20 10:06:31;;;;;;;7.37;5.63;;;;;;;;;;5062014;28;20231;-82
2021/08/20 10:08:59;;;;;;;10.73;5.50;;;;;;;;;;5060488;28;20690;-82
2021/08/20 10:11:29;;;;;;;6.93;4.90;;;;;;;;;;5059677;28;20215;-82
2021/08/20 10:13:57;;;;;;;7.67;5.47;;;;;;;;;;5066157;28;20221;-82
2021/08/20 10:16:25;;;;;;;7.07;5.27;;;;;;;;;;5066202;28;20360;-83
2021/08/20 10:18:52;;;;;;;7.40;5.40;;;;;;;;;;5063746;28;20595;-83
2021/08/20 10:21:19;;;;;;;6.10;4.87;;;;;;;;;;5068055;28;20238;-83
2021/08/20 10:23:47;;;;;;;11.37;5.70;;;;;;;;;;5073129;28;20209;-81
2021/08/20 10:26:15;;;;;;;6.37;4.60;;;;;;;;;;5081666;28;20208;-81
2021/08/20 10:28:44;;;;;;;6.27;4.30;;;;;;;;;;5083851;28;20238;-81
2021/08/20 10:31:12;;;;;;;6.57;5.10;;;;;;;;;;5067994;28;20238;-84
2021/08/20 10:33:39;;;;;;;7.20;4.83;;;;;;;;;;5062092;28;21298;-82
2021/08/20 10:36:07;;;;;;;6.93;4.87;;;;;;;;;;5063977;28;20230;-82
2021/08/20 10:38:35;;;;;;;6.53;4.60;;;;;;;;;;5062853;28;20221;-82
2021/08/20 10:41:09;;;;;;;6.40;4.27;;;;;;;;;;5059621;28;20265;-83
2021/08/20 10:43:54;;;;;;;8.60;4.50;;;;;;;;;;5059600;28;20216;-82
2021/08/20 10:46:41;;;;;;;7.50;4.97;;;;;;;;;;5057105;28;20224;-82
2021/08/20 10:49:21;;;;;;;8.50;4.20;;;;;;;;;;5062714;28;20222;-83
2021/08/20 10:52:01;;;;;;;7.10;4.30;;;;;;;;;;5060682;28;20211;-82
2021/08/20 10:54:47;;;;;;;6.00;4.70;;;;;;;;;;5060932;28;20213;-82
2021/08/20 10:57:29;;;;;;;5.37;3.70;;;;;;;;;;5060698;28;20265;-83
2021/08/20 10:59:58;;;;;;;5.63;4.03;;;;;;;;;;5064722;28;20289;-83
2021/08/20 11:02:44;;;;;;;6.77;4.10;;;;;;;;;;5059195;28;20221;-83
2021/08/20 11:05:12;;;;;;;4.83;3.70;;;;;;;;;;5071031;28;20194;-82
2021/08/20 11:07:45;;;;;;;5.13;4.00;;;;;;;;;;5063960;28;20324;-85
2021/08/20 11:10:31;;;;;;;5.33;4.07;;;;;;;;;;5070233;28;20234;-83
2021/08/20 11:13:02;;;;;;;5.47;3.80;;;;;;;;;;5066224;28;20294;-84
2021/08/20 11:15:43;;;;;;;3.90;3.20;;;;;;;;;;5069848;28;20282;-82
2021/08/20 11:18:10;;;;;;;4.63;3.50;;;;;;;;;;5071809;28;20222;-84
2021/08/20 11:20:39;;;;;;;4.63;3.67;;;;;;;;;;5066989;28;20592;-83
2021/08/20 11:23:16;;;;;;;4.33;3.40;;;;;;;;;;5065805;28;20264;-83
2021/08/20 11:25:44;;;;;;;5.07;3.47;;;;;;;;;;5058366;28;20579;-83
2021/08/20 11:28:17;;;;;;;5.87;3.20;;;;;;;;;;5060025;28;20300;-83
2021/08/20 11:30:46;;;;;;;5.33;3.03;;;;;;;;;;5063476;28;20207;-82
2021/08/20 11:33:15;;;;;;;4.93;3.30;;;;;;;;;;5066839;28;20211;-83
2021/08/20 11:35:43;;;;;;;4.87;3.30;;;;;;;;;;5062194;28;20217;-83
2021/08/20 11:38:10;;;;;;;3.43;2.77;;;;;;;;;;5067579;28;20223;-83
2021/08/20 11:40:47;;;;;;;4.20;3.03;;;;;;;;;;5063644;28;20199;-83
2021/08/20 11:43:14;;;;;;;3.57;2.70;;;;;;;;;;5065385;28;20623;-83
2021/08/20 11:45:42;;;;;;;4.10;2.77;;;;;;;;;;5065168;28;20249;-82
2021/08/20 11:48:10;;;;;;;3.73;2.70;;;;;;;;;;5062385;28;20231;-83
2021/08/20 11:50:37;;;;;;;4.60;3.27;;;;;;;;;;5063197;28;20209;-83
2021/08/20 11:53:04;;;;;;;4.07;2.90;;;;;;;;;;5064566;28;20207;-82
2021/08/20 11:55:32;;;;;;;3.77;2.83;;;;;;;;;;5063519;28;20682;-83
2021/08/20 11:57:59;;;;;;;6.13;2.90;;;;;;;;;;5066868;28;20707;-83
2021/08/20 12:00:37;;;;;;;4.30;2.83;;;;;;;;;;5067383;28;20214;-83
2021/08/20 12:03:07;;;;;;;4.07;2.60;;;;;;;;;;5063313;28;20211;-83
2021/08/20 12:05:36;;;;;;;4.50;2.63;;;;;;;;;;5066527;28;20665;-84
2021/08/20 12:08:14;;;;;;;3.70;2.60;;;;;;;;;;5065062;28;20234;-83
2021/08/20 12:10:43;;;;;;;3.73;2.57;;;;;;;;;;5058682;28;20608;-83
2021/08/20 12:13:11;;;;;;;4.33;2.67;;;;;;;;;;5063987;28;20212;-83
2021/08/20 12:15:39;;;;;;;3.37;2.57;;;;;;;;;;5062126;28;20684;-84
2021/08/20 12:18:19;;;;;;;3.33;2.43;;;;;;;;;;5064119;28;20301;-83
2021/08/20 12:20:47;;;;;;;5.07;2.77;;;;;;;;;;5061625;28;20269;-82
2021/08/20 12:23:14;;;;;;;5.57;2.70;;;;;;;;;;5065200;28;20200;-84
2021/08/20 12:25:42;;;;;;;5.33;2.57;;;;;;;;;;5060742;28;20270;-83
2021/08/20 12:28:12;;;;;;;5.93;2.70;;;;;;;;;;5062486;28;20695;-83
2021/08/20 12:30:39;;;;;;;3.73;2.63;;;;;;;;;;5064809;28;20217;-83
2021/08/20 12:33:06;;;;;;;4.47;2.70;;;;;;;;;;5066516;28;20302;-84
2021/08/20 12:35:33;;;;;;;5.30;2.60;;;;;;;;;;5060957;28;20198;-83
2021/08/20 12:38:03;;;;;;;4.07;2.63;;;;;;;;;;5058907;28;20238;-83
2021/08/20 12:40:37;;;;;;;6.83;2.50;;;;;;;;;;5066527;28;20599;-84
2021/08/20 12:43:04;;;;;;;4.47;2.47;;;;;;;;;;5060854;28;20204;-84
2021/08/20 12:45:32;;;;;;;3.03;2.20;;;;;;;;;;5062473;28;20209;-82
2021/08/20 12:48:04;;;;;;;3.60;2.40;;;;;;;;;;5066514;28;20230;-84
2021/08/20 12:50:32;;;;;;;3.33;2.50;;;;;;;;;;5064924;28;20310;-82
2021/08/20 12:53:04;;;;;;;4.47;2.33;;;;;;;;;;5064894;28;20207;-82
2021/08/20 12:55:33;;;;;;;3.40;2.40;;;;;;;;;;5064803;28;20296;-83
2021/08/20 12:58:00;;;;;;;2.60;2.20;;;;;;;;;;5059267;28;20613;-84
2021/08/20 13:00:31;;;;;;;5.37;2.47;;;;;;;;;;5064915;28;20624;-84
2021/08/20 13:02:58;;;;;;;3.80;2.70;;;;;;;;;;5066295;28;20203;-84
2021/08/20 13:05:25;;;;;;;4.47;2.13;;;;;;;;;;5065161;28;20300;-84
2021/08/20 13:07:53;;;;;;;2.67;1.93;;;;;;;;;;5065549;28;20614;-83
2021/08/20 13:10:21;;;;;;;2.40;1.70;;;;;;;;;;5066154;28;20231;-83
2021/08/20 13:12:48;;;;;;;1.70;1.60;;;;;;;;;;5064557;28;20207;-83
2021/08/20 13:15:16;;;;;;;2.73;1.90;;;;;;;;;;5063574;28;20231;-83
2021/08/20 13:17:44;;;;;;;3.63;2.10;;;;;;;;;;5065041;28;20227;-84
2021/08/20 13:20:12;;;;;;;2.77;2.00;;;;;;;;;;5064063;28;20208;-84
2021/08/20 13:22:44;;;;;;;2.17;1.60;;;;;;;;;;5067310;28;20216;-84
2021/08/20 13:25:11;;;;;;;3.67;1.80;;;;;;;;;;5067235;28;20216;-84
2021/08/20 13:27:40;;;;;;;2.80;1.80;;;;;;;;;;5062346;28;20610;-84
2021/08/20 13:30:08;;;;;;;2.97;1.80;;;;;;;;;;5066288;28;20224;-84
2021/08/20 13:32:35;;;;;;;2.83;1.73;;;;;;;;;;5064329;28;20200;-84
2021/08/20 13:35:02;;;;;;;1.90;1.63;;;;;;;;;;5065682;28;20606;-84
2021/08/20 13:37:29;;;;;;;4.63;1.90;;;;;;;;;;5067971;28;20263;-82
2021/08/20 13:39:56;;;;;;;2.67;1.50;;;;;;;;;;5064849;28;20217;-83
2021/08/20 13:42:23;;;;;;;2.70;1.30;;;;;;;;;;5064971;28;20670;-84
2021/08/20 13:44:53;;;;;;;2.77;1.90;;;;;;;;;;5079582;28;20226;-83
2021/08/20 13:47:20;;;;;;;3.73;1.40;;;;;;;;;;5090183;28;20227;-83
2021/08/20 13:49:47;;;;;;;2.27;1.40;;;;;;;;;;5085646;28;20219;-82
2021/08/20 13:52:14;;;;;;;2.63;1.70;;;;;;;;;;5068211;28;20205;-84
2021/08/20 13:54:42;;;;;;;2.13;1.43;;;;;;;;;;5065364;28;20283;-83
2021/08/20 13:57:09;;;;;;;1.43;1.27;;;;;;;;;;5071701;28;20318;-84
2021/08/20 13:59:38;;;;;;;1.57;1.27;;;;;;;;;;5064093;28;20612;-84
2021/08/20 14:02:06;;;;;;;4.63;1.40;;;;;;;;;;5067949;28;21741;-83
2021/08/20 14:04:33;;;;;;;2.00;1.30;;;;;;;;;;5069095;28;20225;-84
2021/08/20 14:07:01;;;;;;;3.10;1.60;;;;;;;;;;5066378;28;20800;-83
2021/08/20 14:09:28;;;;;;;1.40;1.00;;;;;;;;;;5067008;28;20575;-84
2021/08/20 14:11:55;;;;;;;3.23;1.50;;;;;;;;;;5061691;28;20302;-84
2021/08/20 14:14:22;;;;;;;1.53;1.30;;;;;;;;;;5066709;28;20289;-85
2021/08/20 14:16:50;;;;;;;2.73;1.30;;;;;;;;;;5064500;28;20617;-83
2021/08/20 14:19:18;;;;;;;1.93;1.30;;;;;;;;;;5064349;28;20202;-84
2021/08/20 14:21:45;;;;;;;2.60;1.20;;;;;;;;;;5067012;28;20202;-81
2021/08/20 14:24:13;;;;;;;1.87;1.07;;;;;;;;;;5064023;28;20289;-82
2021/08/20 14:26:42;;;;;;;3.17;1.53;;;;;;;;;;5067150;28;20234;-81
2021/08/20 14:29:10;;;;;;;2.00;1.30;;;;;;;;;;5063466;28;20583;-81
2021/08/20 14:31:37;;;;;;;3.80;1.60;;;;;;;;;;5064548;28;20203;-81
2021/08/20 14:34:04;;;;;;;3.40;1.37;;;;;;;;;;5066078;28;20226;-83
2021/08/20 14:36:32;;;;;;;2.70;1.37;;;;;;;;;;5062804;28;20222;-83
2021/08/20 14:39:00;;;;;;;2.43;1.50;;;;;;;;;;5063985;28;20202;-81
2021/08/20 14:41:27;;;;;;;5.20;1.40;;;;;;;;;;5065236;28;20292;-82
2021/08/20 14:43:54;;;;;;;2.07;1.40;;;;;;;;;;5067530;28;20251;-83